Time;durP1;ratioP1;P1;durP2;ratioP2;P2;SDS_P1;SDS_P2;PMS_P1;PMS_P2;Temp;Humidity;BMP_temperature;BMP_pressure;BME280_temperature;BME280_humidity;BME280_pressure;Samples;Min_cycle;Max_cycle;Signal;HPM_P1;HPM_P2
2022/12/15 00:40:26;;;;;;;1.67;0.57;;;23.00;40.90;;;;;;4055855;29;20048;-40
2022/12/15 00:42:49;;;;;;;1.75;0.40;;;23.00;40.90;;;;;;4057443;29;20040;-39
2022/12/15 00:45:11;;;;;;;0.85;0.40;;;23.00;40.00;;;;;;4057773;29;20043;-45
2022/12/15 00:47:34;;;;;;;1.00;0.50;;;23.10;40.10;;;;;;4056112;29;20068;-40
2022/12/15 01:22:15;;;;;;;2.13;0.52;;;23.70;40.50;;;;;;4047890;29;20463;-38
2022/12/15 01:24:38;;;;;;;2.38;0.38;;;23.80;40.30;;;;;;4052539;29;20104;-38
2022/12/15 01:27:00;;;;;;;0.30;0.30;;;23.80;40.50;;;;;;4068018;29;20393;-38
2022/12/15 01:29:24;;;;;;;1.17;0.40;;;23.90;40.40;;;;;;4071263;29;20507;-40
2022/12/15 01:31:46;;;;;;;4.75;0.43;;;23.90;40.40;;;;;;4074301;29;20054;-39
2022/12/15 01:34:09;;;;;;;1.05;0.60;;;23.90;40.00;;;;;;4070083;29;20116;-39
2022/12/15 01:36:31;;;;;;;0.98;0.40;;;23.90;39.80;;;;;;4074153;29;20498;-39
2022/12/15 01:38:54;;;;;;;1.40;0.40;;;24.00;40.10;;;;;;4069702;29;20040;-40
2022/12/15 01:41:17;;;;;;;1.45;0.43;;;24.00;39.80;;;;;;4068712;29;20051;-42
2022/12/15 01:43:41;;;;;;;3.35;0.77;;;24.00;39.60;;;;;;4053760;29;20044;-48
2022/12/15 01:46:15;;;;;;;1.38;0.60;;;24.00;39.60;;;;;;4058453;29;20040;-48
2022/12/15 01:48:51;;;;;;;3.28;0.80;;;24.00;39.60;;;;;;4063354;29;20399;-41
2022/12/15 01:51:36;;;;;;;3.65;0.65;;;24.10;39.20;;;;;;4062831;29;20110;-42
2022/12/15 01:54:16;;;;;;;1.38;0.40;;;24.00;39.00;;;;;;4054825;29;20488;-40
2022/12/15 01:56:44;;;;;;;1.00;0.65;;;24.00;39.10;;;;;;4061103;29;20051;-40
2022/12/15 01:59:10;;;;;;;1.00;0.60;;;24.00;39.00;;;;;;4066204;29;20560;-42
2022/12/15 02:01:33;;;;;;;1.48;0.50;;;24.00;39.10;;;;;;4055661;29;20082;-41
2022/12/15 02:03:56;;;;;;;0.98;0.40;;;24.00;39.00;;;;;;4065238;29;20040;-45
2022/12/15 02:06:21;;;;;;;1.85;0.60;;;23.90;39.00;;;;;;4064317;29;20028;-41
2022/12/15 02:08:46;;;;;;;2.22;0.82;;;23.90;38.90;;;;;;4065066;29;20042;-40
2022/12/15 02:11:11;;;;;;;0.65;0.43;;;23.90;39.10;;;;;;4050373;29;20055;-43
2022/12/15 02:13:50;;;;;;;1.10;0.63;;;23.90;39.10;;;;;;4065829;29;20479;-42
2022/12/15 02:16:39;;;;;;;1.23;0.65;;;23.90;39.10;;;;;;4065165;29;20047;-40
2022/12/15 02:19:18;;;;;;;1.80;0.50;;;23.90;39.20;;;;;;4039920;29;20043;-41
2022/12/15 02:21:54;;;;;;;0.98;0.40;;;23.90;39.20;;;;;;4058849;29;20109;-41
2022/12/15 02:24:37;;;;;;;0.75;0.40;;;23.90;39.30;;;;;;4067536;29;20094;-43
2022/12/15 02:27:12;;;;;;;1.02;0.60;;;23.90;39.20;;;;;;4063842;29;20194;-42
2022/12/15 02:30:02;;;;;;;1.30;0.50;;;24.00;39.30;;;;;;4059153;29;20044;-45
2022/12/15 02:32:43;;;;;;;1.02;0.50;;;24.00;39.30;;;;;;4062459;29;20451;-43
2022/12/15 02:35:20;;;;;;;1.27;0.57;;;24.00;39.40;;;;;;4071401;29;20046;-41
2022/12/15 02:37:45;;;;;;;1.25;0.40;;;24.00;39.40;;;;;;4067068;29;20044;-41
2022/12/15 02:40:10;;;;;;;1.42;0.50;;;24.00;39.50;;;;;;4064559;29;20075;-42
2022/12/15 02:42:35;;;;;;;2.10;0.63;;;24.00;39.50;;;;;;4068914;29;20040;-42
2022/12/15 02:45:12;;;;;;;2.47;0.55;;;24.00;39.50;;;;;;4061957;29;20431;-42
2022/12/15 02:47:57;;;;;;;0.75;0.47;;;24.00;39.60;;;;;;4063488;29;20086;-39
2022/12/15 02:50:35;;;;;;;2.03;0.68;;;24.00;39.60;;;;;;4061534;29;20032;-41
2022/12/15 02:53:04;;;;;;;0.88;0.60;;;24.00;39.70;;;;;;4064075;29;20138;-40
2022/12/15 02:55:59;;;;;;;1.40;0.60;;;24.00;39.80;;;;;;4068448;29;20496;-43
2022/12/15 02:58:51;;;;;;;1.15;0.47;;;24.00;39.90;;;;;;4064762;29;20125;-42
2022/12/15 03:01:34;;;;;;;2.40;0.82;;;24.00;39.90;;;;;;4060487;29;20386;-39
2022/12/15 03:04:00;;;;;;;2.55;0.68;;;24.00;40.00;;;;;;4060998;29;20048;-43
2022/12/15 03:06:26;;;;;;;3.15;0.90;;;24.00;40.10;;;;;;4064396;29;20044;-41
2022/12/15 03:08:49;;;;;;;2.67;1.02;;;24.00;40.20;;;;;;4062490;29;20403;-46
2022/12/15 03:11:11;;;;;;;1.90;1.02;;;24.00;40.30;;;;;;4063656;29;20511;-41
2022/12/15 03:13:34;;;;;;;3.17;1.15;;;24.00;40.30;;;;;;4062695;29;20051;-47
2022/12/15 03:15:57;;;;;;;1.10;0.60;;;24.00;40.30;;;;;;4061019;29;20471;-41
2022/12/15 03:18:20;;;;;;;1.85;0.52;;;24.00;40.30;;;;;;4057420;29;20155;-47
2022/12/15 03:20:43;;;;;;;4.00;1.40;;;24.10;40.50;;;;;;4063878;29;20537;-45
2022/12/15 03:23:05;;;;;;;4.60;1.25;;;24.10;40.80;;;;;;4052630;29;20036;-48
2022/12/15 03:25:29;;;;;;;2.17;0.80;;;24.10;40.80;;;;;;4055949;29;20493;-45
2022/12/15 03:27:52;;;;;;;2.15;0.57;;;24.20;40.60;;;;;;4058229;29;20042;-42
2022/12/15 03:30:14;;;;;;;4.25;1.00;;;24.20;40.70;;;;;;4057814;29;20171;-47
2022/12/15 03:32:37;;;;;;;2.88;1.30;;;24.20;40.80;;;;;;4064320;29;20036;-45
2022/12/15 03:35:00;;;;;;;2.83;1.17;;;24.20;41.10;;;;;;4062350;29;20054;-42
2022/12/15 03:37:23;;;;;;;2.15;1.00;;;24.20;41.20;;;;;;4061383;29;20031;-41
2022/12/15 03:39:46;;;;;;;2.88;0.90;;;24.20;40.90;;;;;;4061189;29;20066;-40
2022/12/15 03:42:09;;;;;;;3.13;1.08;;;24.30;41.10;;;;;;4066976;29;20113;-40
2022/12/15 03:44:31;;;;;;;3.95;1.25;;;24.30;41.80;;;;;;4069085;29;20630;-41
2022/12/15 03:46:54;;;;;;;4.10;1.02;;;24.40;41.50;;;;;;4067683;29;20051;-44
2022/12/15 03:49:17;;;;;;;5.05;1.00;;;24.40;41.70;;;;;;4059184;29;20450;-40
2022/12/15 03:51:39;;;;;;;3.30;1.17;;;24.40;41.70;;;;;;4053084;29;20044;-42
2022/12/15 03:54:02;;;;;;;5.13;1.67;;;24.50;41.90;;;;;;4061566;29;20552;-40
2022/12/15 03:56:25;;;;;;;3.45;1.10;;;24.50;41.90;;;;;;4062754;29;20063;-39
2022/12/15 03:58:47;;;;;;;3.85;1.25;;;24.60;41.90;;;;;;4058822;29;20075;-39
2022/12/15 04:01:37;;;;;;;3.55;1.23;;;24.70;41.80;;;;;;4054899;29;20059;-42
2022/12/15 04:04:00;;;;;;;4.85;1.10;;;24.70;41.70;;;;;;4062480;29;20035;-41
2022/12/15 04:06:23;;;;;;;34.75;5.47;;;24.80;41.90;;;;;;4059392;29;20047;-41
2022/12/15 04:08:45;;;;;;;33.13;4.18;;;24.80;41.90;;;;;;4056181;29;20063;-38
2022/12/15 04:11:08;;;;;;;19.83;2.75;;;24.80;42.20;;;;;;4054332;29;20127;-38
2022/12/15 04:13:30;;;;;;;10.10;1.85;;;24.90;42.30;;;;;;4058767;29;20039;-39
2022/12/15 04:15:53;;;;;;;9.15;2.10;;;25.00;42.30;;;;;;4057599;29;20090;-38
2022/12/15 04:18:15;;;;;;;10.75;1.38;;;25.10;42.30;;;;;;4057467;29;20126;-39
2022/12/15 04:20:39;;;;;;;5.88;1.30;;;25.10;42.10;;;;;;4059405;29;20091;-38
2022/12/15 04:23:02;;;;;;;4.75;1.55;;;25.20;42.30;;;;;;4061926;29;20509;-39
2022/12/15 05:32:54;;;;;;;3.55;1.15;;;26.80;40.90;;;;;;4053112;29;20131;-40
2022/12/15 05:35:17;;;;;;;2.67;1.10;;;26.80;40.80;;;;;;4047598;29;20055;-39
2022/12/15 05:37:40;;;;;;;3.70;1.17;;;26.90;41.00;;;;;;4050595;29;20044;-40
2022/12/15 05:40:02;;;;;;;1.95;0.80;;;27.00;41.10;;;;;;4060111;29;20181;-37
2022/12/15 05:42:25;;;;;;;3.45;1.20;;;27.00;41.00;;;;;;4066985;29;20055;-40
2022/12/15 05:44:47;;;;;;;4.72;1.50;;;27.00;40.80;;;;;;4066273;29;20510;-36
2022/12/15 05:47:11;;;;;;;2.45;1.02;;;27.00;40.60;;;;;;4067401;29;20039;-40
2022/12/15 05:49:34;;;;;;;;;;;27.00;40.50;;;;;;4070245;29;20082;-41
2022/12/15 05:51:57;;;;;;;3.92;1.48;;;26.90;40.50;;;;;;4063633;29;19915;-41
2022/12/15 05:54:20;;;;;;;3.50;1.45;;;27.00;41.00;;;;;;4060341;29;20095;-39
2022/12/15 05:56:43;;;;;;;4.57;1.23;;;27.00;40.90;;;;;;4059627;29;20063;-38
2022/12/15 05:59:05;;;;;;;4.45;1.20;;;27.10;40.80;;;;;;4057713;29;20067;-41
2022/12/15 06:01:30;;;;;;;3.95;1.35;;;27.20;40.70;;;;;;4062178;29;20385;-41
2022/12/15 06:03:52;;;;;;;3.08;1.10;;;27.30;40.90;;;;;;4059979;28;20593;-43
2022/12/15 06:06:15;;;;;;;3.05;0.98;;;27.40;40.90;;;;;;4060005;29;20126;-37
2022/12/15 06:08:40;;;;;;;6.07;1.85;;;27.40;40.50;;;;;;4062878;29;20118;-39
2022/12/15 06:11:03;;;;;;;7.88;2.05;;;27.40;40.30;;;;;;4061679;29;20105;-38
2022/12/15 06:13:25;;;;;;;4.03;1.75;;;27.40;40.20;;;;;;4061614;29;20059;-39
2022/12/15 06:15:56;;;;;;;5.97;1.97;;;27.30;40.10;;;;;;4071469;29;20043;-44
2022/12/15 06:18:18;;;;;;;6.72;1.75;;;27.20;40.10;;;;;;4066302;29;20278;-40
2022/12/15 06:20:41;;;;;;;6.50;1.33;;;27.10;39.80;;;;;;4066210;29;20061;-38
2022/12/15 06:23:03;;;;;;;6.40;1.70;;;27.00;39.90;;;;;;4064587;29;20031;-39
2022/12/15 06:25:26;;;;;;;3.65;1.17;;;27.10;40.70;;;;;;4066366;29;20118;-39
2022/12/15 06:27:48;;;;;;;4.72;1.35;;;27.10;40.00;;;;;;4068798;29;20039;-39
2022/12/15 06:30:11;;;;;;;8.82;1.90;;;27.00;40.10;;;;;;4068361;29;20115;-42
2022/12/15 06:32:35;;;;;;;6.63;1.80;;;27.00;40.40;;;;;;4060888;29;20819;-39
2022/12/15 06:34:57;;;;;;;;;;;27.00;40.40;;;;;;4042693;29;20524;-37
2022/12/15 06:37:22;;;;;;;4.15;1.20;;;27.00;40.30;;;;;;4058050;29;19910;-37
2022/12/15 06:39:45;;;;;;;3.38;1.20;;;26.90;40.90;;;;;;4059427;29;20424;-38
2022/12/15 06:42:07;;;;;;;3.47;1.52;;;26.90;40.40;;;;;;4057282;29;20099;-40
2022/12/15 06:44:30;;;;;;;5.68;1.77;;;26.90;40.80;;;;;;4061190;29;20808;-38
2022/12/15 06:46:52;;;;;;;4.88;1.52;;;26.80;41.20;;;;;;4057566;29;20481;-38
2022/12/15 06:49:15;;;;;;;2.55;1.15;;;26.90;41.20;;;;;;4048341;29;20067;-38
2022/12/15 06:51:38;;;;;;;5.00;1.48;;;26.90;41.30;;;;;;4054574;29;20820;-38
2022/12/15 06:54:00;;;;;;;4.15;1.27;;;27.00;41.30;;;;;;4046654;29;20584;-37
2022/12/15 06:56:35;;;;;;;3.50;1.27;;;26.90;41.10;;;;;;4048550;29;20063;-37
2022/12/15 06:58:58;;;;;;;4.05;1.38;;;26.90;41.10;;;;;;4045941;29;20111;-38
2022/12/15 07:01:22;;;;;;;4.70;1.40;;;26.90;41.10;;;;;;4050430;29;20056;-39
2022/12/15 07:03:45;;;;;;;3.25;1.17;;;26.90;41.20;;;;;;4046293;29;20411;-38
2022/12/15 07:06:11;;;;;;;7.32;1.75;;;26.90;41.10;;;;;;4049925;29;20036;-38
2022/12/15 07:08:33;;;;;;;7.65;2.10;;;27.00;41.20;;;;;;4054379;29;20055;-43
2022/12/15 07:10:56;;;;;;;9.25;2.20;;;26.90;41.20;;;;;;4035953;29;20072;-38
2022/12/15 07:13:19;;;;;;;9.93;2.42;;;26.90;41.40;;;;;;4048839;29;20036;-41
2022/12/15 07:15:43;;;;;;;7.93;2.88;;;26.90;41.60;;;;;;4044799;29;20048;-40
2022/12/15 07:18:05;;;;;;;;;;;26.90;41.70;;;;;;4064789;29;20046;-43
2022/12/15 07:20:28;;;;;;;7.05;2.15;;;26.80;41.80;;;;;;4063704;29;19922;-39
2022/12/15 07:22:54;;;;;;;9.35;2.88;;;26.80;41.90;;;;;;4065304;29;20047;-39
2022/12/15 07:25:17;;;;;;;8.35;2.13;;;26.80;42.00;;;;;;4044957;29;20050;-40
2022/12/15 07:27:40;;;;;;;8.10;2.40;;;26.70;42.10;;;;;;4065266;29;20528;-40
2022/12/15 07:30:02;;;;;;;6.57;1.90;;;26.70;42.10;;;;;;4070270;29;20238;-38
2022/12/15 07:32:43;;;;;;;6.20;2.00;;;26.70;42.20;;;;;;4057719;29;20112;-45
2022/12/15 07:35:07;;;;;;;14.00;2.58;;;26.70;42.20;;;;;;4070495;29;20036;-40
2022/12/15 07:37:30;;;;;;;5.72;1.85;;;26.60;42.40;;;;;;4061242;29;20489;-41
2022/12/15 07:39:53;;;;;;;6.80;2.00;;;26.60;42.20;;;;;;4059534;29;20103;-37
2022/12/15 07:42:15;;;;;;;5.05;1.95;;;26.60;42.20;;;;;;4058836;29;20516;-37
2022/12/15 07:44:38;;;;;;;6.72;2.13;;;26.50;42.00;;;;;;4062838;29;20118;-39
2022/12/15 07:47:00;;;;;;;9.93;2.17;;;26.50;42.00;;;;;;4062764;29;20458;-39
2022/12/15 07:49:23;;;;;;;7.60;1.88;;;26.40;41.90;;;;;;4064750;29;20079;-39
2022/12/15 07:52:01;;;;;;;5.03;1.83;;;26.30;41.90;;;;;;4050133;29;20049;-46
2022/12/15 07:54:23;;;;;;;5.85;1.98;;;26.30;42.00;;;;;;4059111;29;20500;-37
2022/12/15 07:56:46;;;;;;;6.88;1.88;;;26.30;42.10;;;;;;4061232;29;20060;-38
2022/12/15 07:59:09;;;;;;;6.82;1.83;;;26.20;42.00;;;;;;4057437;29;20048;-42
2022/12/15 08:01:32;;;;;;;5.40;2.05;;;26.20;42.10;;;;;;4062647;29;20400;-41
2022/12/15 08:03:54;;;;;;;6.05;2.05;;;26.10;42.00;;;;;;4057854;29;20035;-42
2022/12/15 08:06:17;;;;;;;4.25;1.75;;;26.10;42.10;;;;;;4059638;29;20044;-40
2022/12/15 08:08:40;;;;;;;6.05;2.17;;;26.10;42.90;;;;;;4056229;29;20142;-42
2022/12/15 08:11:11;;;;;;;4.45;1.60;;;26.00;42.20;;;;;;4062998;29;20071;-37
2022/12/15 08:13:37;;;;;;;7.35;2.17;;;26.00;42.20;;;;;;4063466;29;20135;-42
2022/12/15 08:16:00;;;;;;;5.28;1.77;;;25.90;42.20;;;;;;4062847;29;20666;-41
2022/12/15 08:18:23;;;;;;;4.25;1.70;;;25.90;42.30;;;;;;4059818;29;20051;-41
2022/12/15 08:20:45;;;;;;;5.32;1.83;;;25.80;42.40;;;;;;4061434;29;20050;-40
2022/12/15 08:23:08;;;;;;;5.07;2.20;;;25.80;42.50;;;;;;4061895;29;20036;-41
2022/12/15 08:25:31;;;;;;;5.28;1.92;;;25.80;42.50;;;;;;4049018;29;20145;-37
2022/12/15 08:27:55;;;;;;;6.00;1.83;;;25.70;42.50;;;;;;4058919;29;20032;-40
2022/12/15 08:30:18;;;;;;;5.25;1.90;;;25.70;42.50;;;;;;4060704;29;20040;-44
2022/12/15 08:32:40;;;;;;;7.77;2.07;;;25.70;42.60;;;;;;4062083;29;20455;-44
2022/12/15 08:35:03;;;;;;;7.28;2.20;;;25.60;42.70;;;;;;4059697;29;20027;-45
2022/12/15 08:37:26;;;;;;;5.57;1.90;;;25.60;42.70;;;;;;4059224;29;20059;-39
2022/12/15 08:39:48;;;;;;;6.13;2.00;;;25.50;42.60;;;;;;4057526;29;20035;-38
2022/12/15 08:42:11;;;;;;;7.47;1.95;;;25.50;42.70;;;;;;4059420;29;20484;-40
2022/12/15 08:44:33;;;;;;;4.47;2.10;;;25.50;42.80;;;;;;4059454;29;20047;-38
2022/12/15 08:46:56;;;;;;;7.03;2.38;;;25.40;42.70;;;;;;4063195;29;20416;-39
2022/12/15 08:49:18;;;;;;;8.00;2.60;;;25.40;42.90;;;;;;4061438;29;20079;-38
2022/12/15 08:51:41;;;;;;;5.95;2.25;;;25.40;42.90;;;;;;4050680;29;20590;-42
2022/12/15 08:54:04;;;;;;;8.30;2.78;;;25.40;42.90;;;;;;4059850;29;20046;-39
2022/12/15 08:56:27;;;;;;;6.82;2.28;;;25.30;43.00;;;;;;4059331;29;20059;-37
2022/12/15 08:58:54;;;;;;;7.35;2.65;;;25.30;43.00;;;;;;4062098;29;20046;-38
2022/12/15 09:01:21;;;;;;;6.63;2.75;;;25.30;43.70;;;;;;4061144;29;20570;-38
2022/12/15 09:03:43;;;;;;;6.28;2.30;;;25.20;43.10;;;;;;4063859;29;20054;-39
2022/12/15 09:06:14;;;;;;;7.40;2.30;;;25.20;43.10;;;;;;4065066;29;20051;-44
2022/12/15 09:08:36;;;;;;;7.63;2.50;;;25.20;43.10;;;;;;4063764;29;20464;-37
2022/12/15 09:11:00;;;;;;;5.28;2.08;;;25.10;43.20;;;;;;4064107;29;20055;-42
2022/12/15 09:13:22;;;;;;;5.00;1.88;;;25.10;43.20;;;;;;4059346;29;20047;-38
2022/12/15 09:15:45;;;;;;;4.50;2.13;;;25.10;43.30;;;;;;4060236;29;20436;-38
2022/12/15 09:18:07;;;;;;;7.15;2.10;;;25.10;43.40;;;;;;4058982;29;20093;-37
2022/12/15 09:20:30;;;;;;;7.50;2.35;;;25.00;43.40;;;;;;4061082;29;20044;-39
2022/12/15 09:22:52;;;;;;;4.68;2.00;;;25.00;43.50;;;;;;4063494;29;20731;-39
2022/12/15 09:25:15;;;;;;;4.43;1.50;;;24.90;43.50;;;;;;4063342;29;20131;-38
2022/12/15 09:27:38;;;;;;;6.10;1.95;;;24.90;43.50;;;;;;4061589;29;20286;-38
2022/12/15 09:30:01;;;;;;;6.45;2.03;;;24.90;43.60;;;;;;4060418;29;20040;-37
2022/12/15 09:32:24;;;;;;;5.30;1.85;;;24.90;43.70;;;;;;4058644;29;20036;-38
2022/12/15 09:34:47;;;;;;;7.67;2.10;;;24.80;43.70;;;;;;4061346;29;20142;-38
2022/12/15 09:37:10;;;;;;;6.10;1.90;;;24.80;43.80;;;;;;4058407;29;20044;-38
2022/12/15 09:39:32;;;;;;;6.97;2.10;;;24.80;43.80;;;;;;4063361;29;20047;-39
2022/12/15 09:41:59;;;;;;;5.90;2.40;;;24.80;43.90;;;;;;4064247;29;20059;-39
2022/12/15 09:44:25;;;;;;;6.35;1.75;;;24.70;43.90;;;;;;4059620;29;20052;-37
2022/12/15 09:47:12;;;;;;;6.72;2.40;;;24.70;43.90;;;;;;4062780;29;20111;-38
2022/12/15 09:49:56;;;;;;;6.15;2.22;;;24.70;44.00;;;;;;4064953;29;20432;-40
2022/12/15 09:52:32;;;;;;;7.55;2.13;;;24.60;43.90;;;;;;4066161;29;20514;-39
2022/12/15 09:54:56;;;;;;;8.32;2.10;;;24.60;43.90;;;;;;4066353;29;20050;-39
2022/12/15 09:57:19;;;;;;;6.97;2.05;;;24.60;44.00;;;;;;4066140;29;20131;-38
2022/12/15 10:00:10;;;;;;;4.53;2.03;;;24.60;44.00;;;;;;4055255;29;20080;-38
2022/12/15 10:03:05;;;;;;;7.07;2.33;;;24.60;44.00;;;;;;4065949;29;20052;-38
2022/12/15 10:05:39;;;;;;;;;;;24.50;44.00;;;;;;4077501;29;20047;-38
2022/12/15 10:10:27;;;;;;;6.40;2.10;;;24.50;44.10;;;;;;4643518;23;20447;-62
2022/12/15 10:12:56;;;;;;;4.35;1.52;;;24.40;44.00;;;;;;4078547;28;20122;-65
2022/12/15 10:15:24;;;;;;;5.85;1.88;;;24.40;44.10;;;;;;4081623;28;20482;-65
2022/12/15 10:18:00;;;;;;;6.45;2.00;;;24.40;44.10;;;;;;4069858;28;20050;-65
2022/12/15 10:20:29;;;;;;;4.78;2.38;;;24.40;44.10;;;;;;4074986;28;20648;-65
2022/12/15 10:22:52;;;;;;;4.55;1.90;;;24.40;44.10;;;;;;4077391;28;20054;-64
2022/12/15 10:25:31;;;;;;;3.72;1.55;;;24.40;44.10;;;;;;4074345;29;20035;-65
2022/12/15 10:27:56;;;;;;;3.47;1.50;;;24.30;44.00;;;;;;4071280;28;20501;-65
2022/12/15 10:30:19;;;;;;;4.43;1.70;;;24.30;44.10;;;;;;4074248;29;20038;-65
2022/12/15 10:33:23;;;;;;;5.50;2.00;;;24.20;44.00;;;;;;4081721;29;20451;-66
2022/12/15 10:35:47;;;;;;;5.30;1.90;;;24.20;44.00;;;;;;4078426;28;20047;-64
2022/12/15 10:38:39;;;;;;;4.00;1.42;;;24.20;44.00;;;;;;4379100;23;20086;-39
2022/12/15 10:41:14;;;;;;;6.88;2.08;;;24.20;44.00;;;;;;4055359;29;20650;-38
2022/12/15 10:43:42;;;;;;;4.03;1.58;;;24.20;44.10;;;;;;4066823;29;20079;-38
2022/12/15 10:46:23;;;;;;;4.45;1.58;;;24.20;44.10;;;;;;4063493;29;20079;-44
2022/12/15 10:48:48;;;;;;;3.72;1.45;;;24.10;44.10;;;;;;4061455;29;20040;-41
2022/12/15 10:51:16;;;;;;;7.15;1.70;;;24.10;44.00;;;;;;4065650;29;20406;-38
2022/12/15 10:53:49;;;;;;;4.40;1.60;;;24.10;44.10;;;;;;4059137;29;20036;-38
2022/12/15 10:56:31;;;;;;;5.22;1.70;;;24.00;44.10;;;;;;4056109;29;20047;-41
2022/12/15 10:58:56;;;;;;;4.55;1.83;;;24.00;44.20;;;;;;4058698;29;20416;-37
2022/12/15 11:01:24;;;;;;;7.38;1.90;;;24.00;44.30;;;;;;4062822;29;20051;-36
2022/12/15 11:03:50;;;;;;;4.88;1.70;;;24.00;44.40;;;;;;4063979;29;20046;-35
2022/12/15 11:06:25;;;;;;;7.90;1.83;;;24.00;44.50;;;;;;4061355;29;20074;-36
2022/12/15 11:08:51;;;;;;;5.57;1.70;;;24.00;44.60;;;;;;4058891;29;20513;-35
2022/12/15 11:14:24;;;;;;;3.92;1.67;;;24.00;44.50;;;;;;4066556;29;20038;-36
2022/12/15 11:16:58;;;;;;;4.50;1.63;;;23.90;44.40;;;;;;4062925;29;20039;-36
2022/12/15 11:19:45;;;;;;;6.20;1.88;;;23.90;44.40;;;;;;4065333;29;20087;-36
2022/12/15 11:22:42;;;;;;;5.05;1.92;;;23.90;44.50;;;;;;4067717;29;20047;-38
2022/12/15 11:25:38;;;;;;;4.97;1.45;;;23.90;44.30;;;;;;4060035;29;20032;-36
2022/12/15 11:28:05;;;;;;;3.97;1.40;;;23.80;44.30;;;;;;4062849;29;20048;-36
2022/12/15 11:30:43;;;;;;;3.60;1.60;;;23.90;44.30;;;;;;4064796;29;20108;-37
2022/12/15 11:33:09;;;;;;;4.40;1.42;;;23.80;44.30;;;;;;4061670;29;20452;-38
2022/12/15 11:36:11;;;;;;;6.18;1.60;;;23.80;44.30;;;;;;4066778;29;20130;-37
2022/12/15 11:38:51;;;;;;;4.40;1.52;;;23.80;44.30;;;;;;4066494;29;20060;-36
2022/12/15 11:41:31;;;;;;;5.90;1.63;;;23.80;44.30;;;;;;4067687;29;20110;-36
2022/12/15 11:44:21;;;;;;;3.72;1.48;;;23.80;44.30;;;;;;4067234;29;21853;-37
2022/12/15 11:46:59;;;;;;;5.15;2.08;;;23.80;44.40;;;;;;4062859;29;20553;-36
2022/12/15 11:49:43;;;;;;;3.55;1.35;;;23.80;44.40;;;;;;4059555;29;20076;-36
2022/12/15 11:52:15;;;;;;;2.43;0.93;;;23.80;44.50;;;;;;4058722;29;20186;-37
2022/12/15 11:54:53;;;;;;;10.45;2.15;;;23.80;44.40;;;;;;4044402;29;20071;-37
2022/12/15 11:57:28;;;;;;;5.10;1.45;;;23.80;44.60;;;;;;4060437;29;20479;-37
2022/12/15 12:00:04;;;;;;;4.32;1.63;;;23.80;44.50;;;;;;4056169;29;20028;-37
2022/12/15 12:02:36;;;;;;;5.63;1.55;;;23.80;44.50;;;;;;4056418;28;20055;-37
2022/12/15 12:05:24;;;;;;;5.28;1.65;;;23.70;44.40;;;;;;4062403;29;20043;-36
2022/12/15 12:07:59;;;;;;;6.95;1.77;;;23.70;44.50;;;;;;4060430;29;20050;-35
2022/12/15 12:11:00;;;;;;;4.25;1.77;;;23.70;44.50;;;;;;4061128;29;20051;-38
2022/12/15 12:13:34;;;;;;;5.97;1.50;;;23.60;44.40;;;;;;4061411;29;20586;-37
2022/12/15 12:15:57;;;;;;;4.18;1.50;;;23.60;44.50;;;;;;4058986;29;20035;-38
2022/12/15 12:18:32;;;;;;;6.07;1.90;;;23.60;44.40;;;;;;4061713;29;20050;-38
2022/12/15 12:21:24;;;;;;;7.95;1.98;;;23.60;44.50;;;;;;4059176;29;20495;-37
2022/12/15 12:23:57;;;;;;;3.78;1.70;;;23.60;44.50;;;;;;4068710;29;20183;-38
2022/12/15 12:26:38;;;;;;;4.63;1.63;;;23.60;44.50;;;;;;4066952;29;20443;-36
2022/12/15 12:29:17;;;;;;;4.68;1.40;;;23.60;44.40;;;;;;4065215;29;20086;-38
2022/12/15 12:32:11;;;;;;;4.47;1.73;;;23.50;44.50;;;;;;4064750;29;20042;-37
2022/12/15 12:34:59;;;;;;;3.95;1.60;;;23.50;44.40;;;;;;4065847;29;20044;-38
2022/12/15 12:37:31;;;;;;;6.13;1.70;;;23.50;44.20;;;;;;4062910;29;20086;-36
2022/12/15 12:40:00;;;;;;;8.98;1.90;;;23.50;44.30;;;;;;4059661;29;20131;-37
2022/12/15 12:42:39;;;;;;;6.97;2.08;;;23.50;44.20;;;;;;4060072;29;20091;-37
2022/12/15 12:45:03;;;;;;;6.43;1.70;;;23.40;44.10;;;;;;4058471;29;20515;-36
2022/12/15 12:47:34;;;;;;;5.05;1.60;;;23.40;44.20;;;;;;4060816;29;20051;-36
2022/12/15 12:50:19;;;;;;;4.50;1.80;;;23.40;44.20;;;;;;4060411;29;20781;-37
2022/12/15 12:52:54;;;;;;;4.32;1.33;;;23.40;44.10;;;;;;4063224;29;20465;-36
2022/12/15 12:55:26;;;;;;;3.97;1.30;;;23.30;44.10;;;;;;4064782;29;20071;-36
2022/12/15 12:57:49;;;;;;;3.15;1.10;;;23.30;44.20;;;;;;4050126;29;20079;-36
2022/12/15 13:00:22;;;;;;;5.70;1.75;;;23.30;44.30;;;;;;4064154;29;20126;-37
2022/12/15 13:02:52;;;;;;;4.10;1.23;;;23.30;44.50;;;;;;4065229;29;20426;-36
2022/12/15 13:05:28;;;;;;;5.60;1.35;;;23.30;44.50;;;;;;4065935;29;20123;-36
2022/12/15 13:08:06;;;;;;;5.97;1.98;;;23.20;44.50;;;;;;4065050;29;20043;-37
2022/12/15 13:10:29;;;;;;;5.43;1.50;;;23.20;44.60;;;;;;4065170;29;20040;-37
2022/12/15 13:12:59;;;;;;;4.78;1.50;;;23.20;44.70;;;;;;4065175;29;20043;-36
2022/12/15 13:15:30;;;;;;;4.15;1.40;;;23.20;44.70;;;;;;4066613;29;20040;-35
2022/12/15 13:17:59;;;;;;;4.85;1.52;;;23.20;44.70;;;;;;4067148;29;20050;-36
2022/12/15 13:20:29;;;;;;;4.78;1.83;;;23.20;44.70;;;;;;4063061;29;20063;-37
2022/12/15 13:22:52;;;;;;;3.45;1.30;;;23.20;44.70;;;;;;4063218;29;20451;-36
2022/12/15 13:25:35;;;;;;;2.92;1.02;;;23.10;44.70;;;;;;4065893;29;20487;-35
2022/12/15 13:28:00;;;;;;;6.45;1.75;;;23.10;44.60;;;;;;4065157;29;20435;-35
2022/12/15 13:30:23;;;;;;;3.00;1.10;;;23.10;44.80;;;;;;4065698;29;20523;-38
2022/12/15 13:32:54;;;;;;;2.90;1.25;;;23.10;44.80;;;;;;4065469;29;20047;-36
2022/12/15 13:35:31;;;;;;;4.60;1.17;;;23.10;44.70;;;;;;4065631;29;20115;-39
2022/12/15 13:38:01;;;;;;;3.00;1.40;;;23.10;44.70;;;;;;4061970;29;20087;-37
2022/12/15 13:40:36;;;;;;;2.85;1.38;;;23.00;44.70;;;;;;4061668;29;20559;-38
2022/12/15 13:43:05;;;;;;;5.10;1.40;;;23.00;44.60;;;;;;4058223;29;20078;-37
2022/12/15 13:45:49;;;;;;;3.63;1.50;;;23.00;44.70;;;;;;4067004;29;20133;-36
2022/12/15 13:48:37;;;;;;;6.75;1.55;;;23.00;44.80;;;;;;4061676;29;20079;-36
2022/12/15 13:51:37;;;;;;;5.90;1.67;;;23.00;44.80;;;;;;4066075;29;20043;-36
2022/12/15 13:54:11;;;;;;;3.22;1.13;;;23.00;45.00;;;;;;4064108;29;20500;-36
2022/12/15 13:56:51;;;;;;;4.85;1.33;;;22.90;45.00;;;;;;4066640;29;20052;-36
2022/12/15 13:59:39;;;;;;;4.45;1.45;;;22.90;44.90;;;;;;4062906;29;20731;-37
2022/12/15 14:02:02;;;;;;;4.65;1.38;;;22.90;45.10;;;;;;4064549;29;20047;-36
2022/12/15 14:04:25;;;;;;;2.58;1.38;;;22.90;45.10;;;;;;4060897;29;20044;-36
2022/12/15 14:06:49;;;;;;;2.90;1.30;;;22.90;45.20;;;;;;4063615;29;20079;-37
2022/12/15 14:09:15;;;;;;;1.90;0.90;;;22.90;45.30;;;;;;4066402;29;20399;-37
2022/12/15 14:11:40;;;;;;;3.38;1.38;;;22.90;45.50;;;;;;4068562;29;20429;-37
2022/12/15 14:14:03;;;;;;;3.75;1.33;;;22.90;45.50;;;;;;4073762;29;20055;-37
2022/12/15 14:16:28;;;;;;;7.10;1.65;;;22.90;45.50;;;;;;4071266;29;20034;-36
2022/12/15 14:19:11;;;;;;;3.50;1.30;;;22.90;45.60;;;;;;4071292;29;20377;-36
2022/12/15 14:21:34;;;;;;;4.95;1.38;;;22.90;45.60;;;;;;4068474;29;20095;-36
2022/12/15 14:23:57;;;;;;;6.78;2.00;;;22.80;45.50;;;;;;4065641;29;20032;-36
2022/12/15 14:26:30;;;;;;;3.95;1.38;;;22.80;45.50;;;;;;4068087;29;20071;-38
2022/12/15 14:29:04;;;;;;;4.10;1.50;;;22.80;45.60;;;;;;4066765;29;20138;-40
2022/12/15 14:31:27;;;;;;;4.88;1.50;;;22.80;45.50;;;;;;4064193;29;20043;-38
2022/12/15 14:34:10;;;;;;;4.60;1.40;;;22.80;45.50;;;;;;4066976;29;20051;-40
2022/12/15 14:36:33;;;;;;;4.57;1.60;;;22.80;45.40;;;;;;4068098;29;20066;-38
2022/12/15 14:38:59;;;;;;;3.72;1.48;;;22.80;45.50;;;;;;4068188;29;20059;-37
2022/12/15 14:41:27;;;;;;;3.85;1.33;;;22.80;45.50;;;;;;4067404;29;20040;-39
2022/12/15 14:43:54;;;;;;;2.30;1.02;;;22.80;45.40;;;;;;4070854;29;20178;-42
2022/12/15 14:46:21;;;;;;;4.00;1.40;;;22.80;45.50;;;;;;4072434;29;20043;-38
2022/12/15 14:49:01;;;;;;;2.83;1.30;;;22.80;45.40;;;;;;4069098;29;20475;-40
2022/12/15 14:51:27;;;;;;;5.78;1.50;;;22.80;45.40;;;;;;4066157;29;20201;-40
2022/12/15 14:53:52;;;;;;;4.30;1.48;;;22.80;45.50;;;;;;4070928;29;20056;-38
2022/12/15 14:56:20;;;;;;;3.65;1.42;;;22.70;45.40;;;;;;4070718;29;20095;-37
2022/12/15 14:58:44;;;;;;;3.95;1.65;;;22.70;45.50;;;;;;4070720;29;20040;-38
2022/12/15 15:01:41;;;;;;;;;;;22.70;45.40;;;;;;4069667;29;20578;-39
2022/12/15 15:04:06;;;;;;;4.88;1.67;;;22.70;45.60;;;;;;4028668;29;19963;-38
2022/12/15 15:06:37;;;;;;;6.90;1.55;;;22.70;45.50;;;;;;4067359;29;20046;-39
2022/12/15 15:09:18;;;;;;;3.95;1.48;;;22.70;45.60;;;;;;4068501;29;20075;-38
2022/12/15 15:11:42;;;;;;;4.80;1.40;;;22.70;46.00;;;;;;4071136;29;20526;-42
2022/12/15 15:14:33;;;;;;;3.83;1.52;;;22.70;45.70;;;;;;4070003;29;20075;-38
2022/12/15 15:17:07;;;;;;;5.78;1.73;;;22.70;45.70;;;;;;4066305;29;20043;-40
2022/12/15 15:19:31;;;;;;;4.35;1.83;;;22.60;45.60;;;;;;4069700;29;20088;-38
2022/12/15 15:21:53;;;;;;;4.65;1.45;;;22.60;45.60;;;;;;4070665;29;20662;-40